This is the latest recevied weather packets stored in our database for station/object K7SFN. If no packets are shown the sender has not sent any weather packets the latest 10 day(s).
| Time | Temp. | Humidity | Pressure | Rain* | Wind** | Luminosity | Snow |
|---|---|---|---|---|---|---|---|
| 1777696204 | 16.11° C | 30% | 1016.7 hPa | 0 mm | - | - | - |
| 1777695904 | 16.11° C | 30% | 1016.6 hPa | 0 mm | - | - | - |
| 1777694705 | 16.67° C | 32% | 1016.6 hPa | 0 mm | - | - | - |
| 1777694105 | 17.22° C | 31% | 1016.4 hPa | 0 mm | - | - | - |
| 1777692904 | 18.33° C | 17% | 1016 hPa | 0 mm | - | - | - |
| 1777692604 | 18.33° C | 16% | 1015.9 hPa | 0 mm | - | - | - |
| 1777689304 | 20° C | 15% | 1015.5 hPa | 0 mm | - | - | - |
| 1777687505 | 20.56° C | 15% | 1015.4 hPa | 0 mm | - | - | - |
| 1777687204 | 20.56° C | 14% | 1015.5 hPa | 0 mm | - | - | - |
| 1777686604 | 21.11° C | 15% | 1015.5 hPa | 0 mm | - | - | - |
| 1777686005 | 20.56° C | 16% | 1015.6 hPa | 0 mm | - | - | - |
| 1777683304 | 21.67° C | 13% | 1015.6 hPa | 0 mm | - | - | - |
| 1777680904 | 22.22° C | 13% | 1015.8 hPa | 0 mm | - | - | - |
| 1777679704 | 22.22° C | 13% | 1016.1 hPa | 0 mm | - | - | - |
| 1777677604 | 22.78° C | 13% | 1016.4 hPa | 0 mm | - | - | - |
| 1777673705 | 22.78° C | 14% | 1017.6 hPa | 0 mm | - | - | - |
| 1777673105 | 22.78° C | 14% | 1017.9 hPa | 0 mm | - | - | - |
| 1777672505 | 22.78° C | 14% | 1018.1 hPa | 0 mm | - | - | - |
| 1777671304 | 22.78° C | 15% | 1018.2 hPa | 0 mm | - | - | - |
| 1777667404 | 21.67° C | 16% | 1018.9 hPa | 0 mm | - | - | - |
| 1777665904 | 21.67° C | 17% | 1019.2 hPa | 0 mm | - | - | - |
| 1777663805 | 21.11° C | 16% | 1019.8 hPa | 0 mm | - | - | - |
| 1777662305 | 21.11° C | 17% | 1019.9 hPa | 0 mm | - | - | - |
| 1777659904 | 20° C | 20% | 1020.5 hPa | 0 mm | - | - | - |
| 1777659005 | 18.89° C | 24% | 1020.4 hPa | 0 mm | - | - | - |
* Rain latest hour (hover to see other rain measurements)
** Current wind speed in m/s (hover to see current wind gust speed)